Time;durP1;ratioP1;P1;durP2;ratioP2;P2;SDS_P1;SDS_P2;PMS_P1;PMS_P2;Temp;Humidity;BMP_temperature;BMP_pressure;BME280_temperature;BME280_humidity;BME280_pressure;Samples;Min_cycle;Max_cycle;Signal;HPM_P1;HPM_P2
2023/10/08 00:01:42;;;;;;;15.82;9.10;;;461.10;2380.80;;;;;;6246551;23;20004;-74
2023/10/08 00:04:10;;;;;;;17.33;9.90;;;461.10;2380.80;;;;;;6247062;23;20008;-74
2023/10/08 00:06:37;;;;;;;22.50;11.10;;;461.10;2380.80;;;;;;6246464;23;20000;-76
2023/10/08 00:09:07;;;;;;;16.25;10.68;;;461.10;2380.80;;;;;;6220141;23;20023;-75
2023/10/08 00:11:36;;;;;;;16.20;11.20;;;461.10;2380.80;;;;;;6246747;23;20334;-74
2023/10/08 00:14:05;;;;;;;21.25;10.95;;;461.10;2380.80;;;;;;6246602;23;20004;-75
2023/10/08 00:16:33;;;;;;;21.60;11.60;;;461.10;2380.80;;;;;;6246837;23;19996;-75
2023/10/08 00:19:07;;;;;;;19.98;11.00;;;461.10;2380.80;;;;;;6246773;23;20054;-75
2023/10/08 00:21:34;;;;;;;18.92;10.25;;;461.10;2380.80;;;;;;6219135;23;20364;-74
2023/10/08 00:24:05;;;;;;;18.35;11.10;;;461.10;2380.80;;;;;;6219645;23;20008;-74
2023/10/08 00:26:31;;;;;;;22.08;12.45;;;461.10;2380.80;;;;;;6246925;23;20066;-74
2023/10/08 00:29:06;;;;;;;16.98;9.55;;;461.10;2380.80;;;;;;6246439;23;20296;-75
2023/10/08 00:31:38;;;;;;;19.88;11.30;;;461.10;2380.80;;;;;;6219710;23;20058;-74
2023/10/08 00:34:12;;;;;;;23.05;11.20;;;461.10;2380.80;;;;;;6246703;23;20008;-75
2023/10/08 00:36:39;;;;;;;20.45;11.80;;;460.80;2380.80;;;;;;6246530;23;20050;-74
2023/10/08 00:39:10;;;;;;;19.60;10.77;;;461.00;2380.80;;;;;;6246113;23;20337;-74
2023/10/08 00:41:38;;;;;;;17.38;9.50;;;461.00;2380.80;;;;;;6246615;23;19996;-76
2023/10/08 00:44:07;;;;;;;20.13;10.05;;;461.10;2380.80;;;;;;6246254;23;20000;-74
2023/10/08 00:46:42;;;;;;;17.73;10.30;;;461.10;2380.80;;;;;;6246690;23;19996;-74
2023/10/08 00:49:24;;;;;;;18.55;8.68;;;461.10;2380.80;;;;;;6246246;23;20083;-74
2023/10/08 00:57:23;;;;;;;14.93;8.82;;;461.20;2380.80;;;;;;6154159;23;20088;-74
2023/10/08 00:59:55;;;;;;;16.02;8.77;;;461.30;2380.80;;;;;;6153474;23;20020;-75
2023/10/08 01:02:25;;;;;;;14.57;8.85;;;461.30;2380.80;;;;;;6153499;23;20076;-76
2023/10/08 01:04:51;;;;;;;14.82;9.10;;;461.30;2380.80;;;;;;6153550;23;20006;-75
2023/10/08 01:07:18;;;;;;;16.35;8.30;;;461.30;2380.80;;;;;;6128531;23;20020;-75
2023/10/08 01:09:50;;;;;;;13.68;7.75;;;461.30;2380.80;;;;;;6128746;23;20017;-75
2023/10/08 01:12:22;;;;;;;15.57;7.00;;;461.30;2380.80;;;;;;6153733;23;20440;-75
2023/10/08 01:14:49;;;;;;;13.73;7.57;;;461.30;2380.80;;;;;;6128694;23;20006;-75
2023/10/08 01:17:16;;;;;;;11.82;6.53;;;461.30;2380.80;;;;;;6153422;23;20018;-76
2023/10/08 01:19:50;;;;;;;14.27;6.50;;;461.30;2380.80;;;;;;6153641;23;20079;-75
2023/10/08 01:22:21;;;;;;;12.73;7.72;;;461.40;2380.80;;;;;;6153320;23;20093;-74
2023/10/08 01:24:48;;;;;;;16.77;8.55;;;461.40;2380.80;;;;;;6153463;23;20002;-75
2023/10/08 01:27:28;;;;;;;18.95;9.18;;;461.40;2380.80;;;;;;6153422;23;20001;-74
2023/10/08 01:29:54;;;;;;;17.20;9.98;;;461.40;2380.80;;;;;;6153230;23;20028;-76
2023/10/08 01:32:23;;;;;;;17.33;10.48;;;461.30;2380.80;;;;;;6202219;23;20431;-75
2023/10/08 01:34:49;;;;;;;20.00;11.40;;;461.40;2380.80;;;;;;6215591;23;20005;-75
2023/10/08 01:37:18;;;;;;;18.67;10.73;;;461.40;2380.80;;;;;;6187692;23;20016;-74
2023/10/08 01:39:45;;;;;;;18.73;10.30;;;461.40;2380.80;;;;;;6215000;23;20000;-74
2023/10/08 01:42:20;;;;;;;18.83;10.75;;;461.40;2380.80;;;;;;6214965;23;20027;-75
2023/10/08 01:44:47;;;;;;;16.95;10.57;;;461.40;2380.80;;;;;;6188558;23;20110;-75
2023/10/08 01:47:15;;;;;;;20.63;11.25;;;461.40;2380.80;;;;;;6214760;23;20004;-74
2023/10/08 01:49:43;;;;;;;18.52;11.27;;;461.50;2380.80;;;;;;6188291;23;20454;-75
2023/10/08 01:52:17;;;;;;;19.88;10.90;;;461.50;2380.80;;;;;;6214828;23;20008;-76
2023/10/08 01:54:44;;;;;;;21.52;11.18;;;461.50;2380.80;;;;;;6187351;23;20446;-74
2023/10/08 01:57:12;;;;;;;20.35;11.15;;;461.50;2380.80;;;;;;6214768;23;20008;-74
2023/10/08 01:59:38;;;;;;;23.95;13.15;;;486.40;2380.80;;;;;;6188147;23;20043;-73
2023/10/08 02:02:05;;;;;;;20.83;11.38;;;461.50;2380.80;;;;;;6214350;23;20001;-74
2023/10/08 02:04:35;;;;;;;22.00;12.40;;;461.50;2380.80;;;;;;6187623;23;20027;-74
2023/10/08 02:07:07;;;;;;;17.85;11.68;;;461.50;2380.80;;;;;;6219845;22;20043;-74
2023/10/08 02:09:34;;;;;;;19.13;11.77;;;461.50;2380.80;;;;;;6244844;23;20018;-74
2023/10/08 02:12:00;;;;;;;21.83;11.38;;;461.60;2380.80;;;;;;6244857;23;20057;-76
2023/10/08 02:14:26;;;;;;;19.85;11.93;;;461.60;2380.80;;;;;;6244957;23;20063;-74
2023/10/08 02:16:56;;;;;;;20.33;12.68;;;461.60;2380.80;;;;;;6244791;23;20061;-74
2023/10/08 02:19:26;;;;;;;21.35;12.10;;;461.60;2380.80;;;;;;6244848;23;20376;-75
2023/10/08 02:21:55;;;;;;;23.00;13.82;;;461.50;2380.80;;;;;;6244645;23;20414;-77
2023/10/08 02:24:25;;;;;;;24.50;15.13;;;461.50;2380.80;;;;;;6218192;23;20496;-74
2023/10/08 02:26:54;;;;;;;27.73;15.82;;;461.50;2380.80;;;;;;6245915;23;20004;-73
2023/10/08 02:29:24;;;;;;;25.70;16.08;;;461.50;2380.80;;;;;;6245630;23;20031;-74
2023/10/08 02:31:50;;;;;;;29.95;19.15;;;461.40;2380.80;;;;;;6245848;23;20007;-76
2023/10/08 02:34:16;;;;;;;32.25;21.15;;;461.40;2380.80;;;;;;6218381;23;20008;-74
2023/10/08 02:36:42;;;;;;;39.58;24.77;;;461.30;2380.80;;;;;;6218765;23;20062;-76
2023/10/08 02:39:13;;;;;;;40.78;25.55;;;461.30;2380.80;;;;;;6218565;23;20008;-73
2023/10/08 02:41:42;;;;;;;46.42;27.17;;;461.20;2380.80;;;;;;6245811;23;20004;-75
2023/10/08 02:44:14;;;;;;;45.58;29.48;;;461.10;2380.80;;;;;;6218064;23;20008;-76
2023/10/08 02:46:51;;;;;;;48.83;31.08;;;461.10;2380.80;;;;;;6245434;23;20426;-74
2023/10/08 02:49:22;;;;;;;48.75;30.73;;;461.10;2380.80;;;;;;6245903;23;20059;-73
2023/10/08 02:51:53;;;;;;;47.47;29.13;;;461.10;2380.80;;;;;;6245443;23;20377;-74
2023/10/08 02:54:22;;;;;;;43.75;28.75;;;461.10;2380.80;;;;;;6245668;23;20008;-75
2023/10/08 02:56:57;;;;;;;46.35;29.95;;;461.00;2380.80;;;;;;6245924;23;20015;-74
2023/10/08 02:59:24;;;;;;;50.22;30.50;;;460.90;2380.80;;;;;;6217687;23;20012;-74
2023/10/08 03:01:55;;;;;;;44.75;30.67;;;460.80;2380.80;;;;;;6245333;23;20075;-75
2023/10/08 03:04:22;;;;;;;44.88;28.73;;;460.80;2380.80;;;;;;6245338;23;20135;-75
2023/10/08 03:06:54;;;;;;;46.92;29.67;;;460.80;2380.80;;;;;;6245420;22;20015;-74
2023/10/08 03:09:23;;;;;;;42.35;26.17;;;436.10;2355.20;;;;;;6245497;23;20008;-74
2023/10/08 03:11:50;;;;;;;40.20;26.85;;;436.10;2355.20;;;;;;6245317;23;20062;-75
2023/10/08 03:14:22;;;;;;;44.47;26.67;;;436.10;2355.20;;;;;;6246782;23;20065;-76
2023/10/08 03:16:58;;;;;;;40.60;25.15;;;436.10;2355.20;;;;;;6247674;23;20049;-74
2023/10/08 03:19:24;;;;;;;43.67;23.10;;;436.00;2355.20;;;;;;6247548;23;20004;-74
2023/10/08 03:21:51;;;;;;;36.97;23.52;;;436.00;2355.20;;;;;;6247368;23;20296;-74
2023/10/08 03:27:20;;;;;;;40.50;24.42;;;435.90;2355.20;;;;;;6190326;23;20105;-74
2023/10/08 03:29:47;;;;;;;38.55;22.52;;;435.80;2355.20;;;;;;6184119;23;20466;-74
2023/10/08 03:32:16;;;;;;;39.40;21.58;;;435.80;2355.20;;;;;;6184549;23;20450;-74
2023/10/08 03:34:47;;;;;;;40.85;21.65;;;435.60;2355.20;;;;;;6184344;23;20059;-73
2023/10/08 03:37:21;;;;;;;37.03;20.67;;;435.60;2355.20;;;;;;6184304;23;20386;-75
2023/10/08 03:42:49;;;;;;;37.53;20.88;;;435.70;2355.20;;;;;;6096707;23;20033;-74
2023/10/08 03:45:22;;;;;;;33.92;20.73;;;435.70;2355.20;;;;;;6095955;23;20188;-74
2023/10/08 03:48:03;;;;;;;32.80;19.63;;;435.60;2355.20;;;;;;6095855;23;20007;-75
2023/10/08 03:50:40;;;;;;;35.92;20.95;;;435.60;2355.20;;;;;;6095714;23;20018;-75
2023/10/08 03:53:11;;;;;;;31.65;19.92;;;435.70;2355.20;;;;;;6096008;23;20006;-74
2023/10/08 03:55:40;;;;;;;34.88;21.40;;;435.60;2355.20;;;;;;6095566;23;20436;-74
2023/10/08 03:58:29;;;;;;;36.88;20.05;;;435.50;2355.20;;;;;;6071678;23;20361;-75
2023/10/08 04:01:18;;;;;;;35.58;19.58;;;435.60;2355.20;;;;;;6095134;23;20007;-74
2023/10/08 04:06:28;;;;;;;40.28;19.23;;;435.50;2355.20;;;;;;6155711;23;20360;-74
2023/10/08 04:11:41;;;;;;;30.17;17.60;;;435.60;2355.20;;;;;;6160434;23;20013;-75
2023/10/08 04:14:07;;;;;;;34.22;19.45;;;435.50;2355.20;;;;;;6154727;23;20029;-74
2023/10/08 04:16:37;;;;;;;32.38;18.77;;;435.60;2355.20;;;;;;6154027;23;20371;-74
2023/10/08 04:19:04;;;;;;;37.70;18.58;;;435.60;2355.20;;;;;;6194490;23;20347;-75
2023/10/08 04:21:33;;;;;;;29.70;17.88;;;435.60;2355.20;;;;;;6216711;23;20008;-75
2023/10/08 04:24:08;;;;;;;29.77;18.17;;;435.60;2355.20;;;;;;6214799;23;20055;-75
2023/10/08 04:26:34;;;;;;;29.05;17.58;;;435.60;2355.20;;;;;;6216375;23;19997;-74
2023/10/08 04:29:02;;;;;;;35.33;18.48;;;435.60;2355.20;;;;;;6216625;23;20076;-75
2023/10/08 04:31:37;;;;;;;30.02;16.50;;;435.60;2355.20;;;;;;6214797;23;20008;-74
2023/10/08 04:34:15;;;;;;;29.15;17.63;;;435.70;2355.20;;;;;;6214711;23;20011;-74
2023/10/08 04:36:45;;;;;;;28.27;15.98;;;435.80;2355.20;;;;;;6215214;23;20012;-76
2023/10/08 04:39:35;;;;;;;31.40;15.27;;;435.90;2355.20;;;;;;6216091;23;20012;-75
2023/10/08 04:42:09;;;;;;;29.88;16.08;;;435.90;2355.20;;;;;;6216354;23;20064;-74
2023/10/08 04:44:38;;;;;;;25.25;15.07;;;436.00;2355.20;;;;;;6214831;23;20004;-74
2023/10/08 04:47:04;;;;;;;27.77;15.45;;;436.10;2355.20;;;;;;6214948;23;20008;-74
2023/10/08 04:49:32;;;;;;;30.60;15.32;;;436.10;2355.20;;;;;;6214678;23;20000;-75
2023/10/08 04:52:14;;;;;;;25.27;14.95;;;436.10;2355.20;;;;;;6214532;23;20005;-74
2023/10/08 04:54:54;;;;;;;25.55;14.40;;;436.10;2355.20;;;;;;6214671;23;20339;-75
2023/10/08 04:57:25;;;;;;;22.23;12.38;;;436.10;2355.20;;;;;;6214966;23;20015;-76
2023/10/08 04:59:51;;;;;;;22.58;13.52;;;436.10;2355.20;;;;;;6216231;23;20012;-75
2023/10/08 05:02:24;;;;;;;26.10;14.43;;;436.10;2355.20;;;;;;6215998;23;20429;-75
2023/10/08 05:15:41;;;;;;;19.65;11.73;;;460.90;2380.80;;;;;;6256717;23;20004;-74
2023/10/08 05:18:23;;;;;;;23.73;12.73;;;460.90;2380.80;;;;;;6246056;23;20012;-74
2023/10/08 05:23:53;;;;;;;24.15;12.40;;;460.90;2380.80;;;;;;6256286;23;20004;-74
2023/10/08 05:29:39;;;;;;;24.10;11.18;;;461.00;2380.80;;;;;;6255348;23;20008;-73
2023/10/08 05:39:32;;;;;;;20.50;10.95;;;461.10;2380.80;;;;;;6256536;23;20373;-74
2023/10/08 05:45:28;;;;;;;23.60;10.25;;;461.20;2380.80;;;;;;6193099;23;20091;-74
2023/10/08 05:48:13;;;;;;;15.38;8.38;;;461.20;2380.80;;;;;;6183098;23;20005;-75
2023/10/08 05:50:39;;;;;;;13.93;6.85;;;461.30;2380.80;;;;;;6182861;23;20080;-75
2023/10/08 05:53:19;;;;;;;12.45;6.53;;;461.30;2380.80;;;;;;6182956;23;20431;-73
2023/10/08 05:55:47;;;;;;;13.02;6.18;;;461.40;2380.80;;;;;;6182779;23;20005;-73
2023/10/08 05:58:13;;;;;;;13.80;6.28;;;461.40;2380.80;;;;;;6182693;23;20080;-74
2023/10/08 06:03:32;;;;;;;12.30;6.35;;;461.60;2380.80;;;;;;6186334;23;20088;-75
2023/10/08 06:09:06;;;;;;;11.90;6.20;;;461.60;2380.80;;;;;;6184572;23;20017;-77
2023/10/08 06:11:56;;;;;;;10.23;4.95;;;461.60;2380.80;;;;;;6182992;23;20001;-76
2023/10/08 06:14:42;;;;;;;11.75;5.80;;;461.70;2380.80;;;;;;6182347;23;20013;-76
2023/10/08 06:17:23;;;;;;;10.50;5.90;;;461.70;2380.80;;;;;;6218954;23;20015;-76
2023/10/08 06:19:52;;;;;;;10.60;5.22;;;486.40;2380.80;;;;;;6245781;23;20069;-74
2023/10/08 06:22:18;;;;;;;9.10;5.28;;;486.40;2380.80;;;;;;6245678;23;20000;-74
2023/10/08 06:24:44;;;;;;;8.85;4.85;;;486.40;2380.80;;;;;;6245542;23;20023;-75
2023/10/08 06:27:16;;;;;;;9.73;4.90;;;486.50;2380.80;;;;;;6245314;23;20054;-73
2023/10/08 06:29:44;;;;;;;8.80;4.63;;;486.50;2380.80;;;;;;6218949;23;20014;-75
2023/10/08 06:32:11;;;;;;;11.02;5.07;;;486.50;2380.80;;;;;;6245857;23;20008;-74
2023/10/08 06:34:40;;;;;;;9.50;5.25;;;486.50;2380.80;;;;;;6245645;23;19996;-76
2023/10/08 06:37:07;;;;;;;7.88;5.25;;;486.50;2380.80;;;;;;6245522;23;20008;-76
2023/10/08 06:39:47;;;;;;;8.98;4.90;;;486.60;2380.80;;;;;;6218501;23;20011;-74
2023/10/08 06:42:14;;;;;;;12.00;5.50;;;486.60;2380.80;;;;;;6245552;23;20000;-75
2023/10/08 06:44:42;;;;;;;13.75;5.70;;;486.60;2380.80;;;;;;6218894;23;20300;-75
2023/10/08 06:47:09;;;;;;;11.85;4.97;;;486.60;2380.80;;;;;;6245114;23;20008;-74
2023/10/08 06:49:35;;;;;;;8.75;5.15;;;486.70;2380.80;;;;;;6245105;23;20050;-74
2023/10/08 06:52:01;;;;;;;9.57;5.20;;;486.70;2380.80;;;;;;6245372;23;20000;-74
2023/10/08 06:54:30;;;;;;;11.95;6.40;;;486.70;2380.80;;;;;;6245596;23;20028;-74
2023/10/08 06:56:56;;;;;;;12.52;5.85;;;486.80;2380.80;;;;;;6245331;23;20079;-73
2023/10/08 06:59:23;;;;;;;11.02;5.32;;;486.90;2380.80;;;;;;6245448;23;20171;-74
2023/10/08 07:01:51;;;;;;;10.15;5.35;;;487.00;2380.80;;;;;;6245614;23;20003;-75
2023/10/08 07:04:18;;;;;;;13.32;5.25;;;487.00;2380.80;;;;;;6244941;23;20075;-74
2023/10/08 07:06:46;;;;;;;11.70;5.13;;;487.00;2380.80;;;;;;6245086;23;20008;-75
2023/10/08 07:09:29;;;;;;;10.25;5.28;;;487.10;2380.80;;;;;;6219119;23;20020;-75
2023/10/08 07:11:56;;;;;;;19.48;5.85;;;487.10;2380.80;;;;;;6245062;23;20415;-74
2023/10/08 07:14:28;;;;;;;12.23;5.32;;;487.10;2380.80;;;;;;6245488;23;20075;-75
2023/10/08 07:16:58;;;;;;;13.15;6.05;;;487.20;2380.80;;;;;;6245277;23;20551;-74
2023/10/08 07:19:32;;;;;;;11.18;5.63;;;487.30;2380.80;;;;;;6218532;23;20008;-75
2023/10/08 07:22:17;;;;;;;11.27;6.03;;;487.30;2380.80;;;;;;6245367;23;20003;-74
2023/10/08 07:24:50;;;;;;;13.60;5.20;;;512.00;2380.80;;;;;;6218477;23;20008;-74
2023/10/08 07:27:29;;;;;;;9.48;4.93;;;512.20;2380.80;;;;;;6245058;23;20011;-74
2023/10/08 07:29:55;;;;;;;13.18;5.88;;;512.30;2380.80;;;;;;6245490;23;20007;-74
2023/10/08 07:32:21;;;;;;;9.02;4.88;;;512.30;2380.80;;;;;;6245651;23;20423;-75
2023/10/08 07:34:47;;;;;;;11.02;4.95;;;512.30;2380.80;;;;;;6245597;23;20000;-77
2023/10/08 07:37:14;;;;;;;12.52;6.10;;;512.40;2380.80;;;;;;6245495;23;20012;-76
2023/10/08 07:39:46;;;;;;;10.27;5.43;;;512.40;2380.80;;;;;;6245099;23;20007;-76
2023/10/08 07:42:12;;;;;;;16.35;5.70;;;512.40;2380.80;;;;;;6244957;23;20057;-75
2023/10/08 07:44:40;;;;;;;11.95;5.82;;;512.50;2380.80;;;;;;6245252;23;20462;-75
2023/10/08 07:47:11;;;;;;;10.23;5.25;;;512.60;2380.80;;;;;;6245120;23;20441;-74
2023/10/08 07:49:38;;;;;;;12.65;6.57;;;512.70;2380.80;;;;;;6245269;23;20001;-76
2023/10/08 07:52:04;;;;;;;9.18;5.35;;;512.90;2380.80;;;;;;6218349;23;20330;-74
2023/10/08 07:54:34;;;;;;;10.93;4.93;;;537.60;2406.40;;;;;;6244787;23;20521;-76
2023/10/08 07:57:09;;;;;;;16.10;5.65;;;537.80;2406.40;;;;;;6245012;23;20004;-76
2023/10/08 07:59:42;;;;;;;11.13;5.27;;;537.90;2406.40;;;;;;6218498;23;20015;-76
2023/10/08 08:02:12;;;;;;;11.13;5.30;;;538.00;2406.40;;;;;;6220219;23;20008;-76
2023/10/08 08:04:43;;;;;;;7.38;4.45;;;538.10;2406.40;;;;;;6220274;23;20442;-77
2023/10/08 08:07:21;;;;;;;11.20;5.80;;;538.50;2406.40;;;;;;6219973;23;20016;-76
2023/10/08 08:09:50;;;;;;;11.88;6.00;;;563.40;2432.00;;;;;;6247056;23;20085;-78
2023/10/08 08:12:25;;;;;;;12.70;5.60;;;563.50;2432.00;;;;;;6219881;23;20015;-77
2023/10/08 08:14:54;;;;;;;9.77;5.93;;;563.50;2432.00;;;;;;6219698;23;20343;-79
2023/10/08 08:17:22;;;;;;;11.40;5.55;;;563.70;2432.00;;;;;;6246872;23;20012;-77
2023/10/08 08:19:50;;;;;;;13.57;5.22;;;563.70;2432.00;;;;;;6246830;23;20003;-78
2023/10/08 08:22:23;;;;;;;10.65;5.75;;;563.80;2355.20;;;;;;6246860;23;20000;-77
2023/10/08 08:24:54;;;;;;;13.13;6.05;;;563.90;2355.20;;;;;;6219903;23;20004;-77
2023/10/08 08:27:31;;;;;;;11.13;4.93;;;564.10;2329.60;;;;;;6246493;23;20004;-76
2023/10/08 08:30:09;;;;;;;15.68;6.53;;;564.10;2304.00;;;;;;6220210;23;20011;-79
2023/10/08 08:32:39;;;;;;;13.43;7.45;;;564.10;2304.00;;;;;;6246769;23;20003;-77
2023/10/08 08:35:09;;;;;;;17.42;9.82;;;564.10;2278.40;;;;;;6219853;23;20004;-76
2023/10/08 08:37:35;;;;;;;24.33;11.40;;;;;;;;;;6246969;23;20012;-76
2023/10/08 08:40:18;;;;;;;14.82;5.82;;;589.50;2227.20;;;;;;6246637;23;20028;-77
2023/10/08 08:42:48;;;;;;;14.50;6.70;;;614.80;2099.20;;;;;;6245886;23;20074;-76
2023/10/08 08:45:20;;;;;;;18.98;8.48;;;;;;;;;;6219194;23;20011;-76
2023/10/08 08:47:47;;;;;;;18.63;7.90;;;615.00;2022.40;;;;;;6219556;23;20442;-75
2023/10/08 08:50:13;;;;;;;14.80;7.20;;;615.10;1996.80;;;;;;6246610;23;20004;-76
2023/10/08 08:52:40;;;;;;;13.93;7.97;;;615.10;1971.20;;;;;;6219799;23;20004;-74
2023/10/08 08:55:14;;;;;;;14.27;6.20;;;615.00;1996.80;;;;;;6219931;23;20063;-77
2023/10/08 08:57:44;;;;;;;13.20;6.05;;;615.10;1971.20;;;;;;6221191;23;20008;-75
2023/10/08 09:00:14;;;;;;;11.60;6.15;;;615.30;1920.00;;;;;;6219330;23;20031;-75
2023/10/08 09:02:41;;;;;;;13.18;6.22;;;640.00;1868.80;;;;;;6246713;23;20023;-75
2023/10/08 09:05:23;;;;;;;15.93;7.05;;;615.30;1920.00;;;;;;6246489;23;20004;-75
2023/10/08 09:07:56;;;;;;;16.05;6.30;;;640.00;1945.60;;;;;;6219228;23;20345;-75
2023/10/08 09:10:29;;;;;;;15.32;7.05;;;640.10;1894.40;;;;;;6246366;23;20012;-76
2023/10/08 09:12:59;;;;;;;15.27;6.32;;;640.00;1868.80;;;;;;6246301;23;20039;-75
2023/10/08 09:15:28;;;;;;;12.32;6.15;;;640.00;1868.80;;;;;;6219884;23;20000;-75
2023/10/08 09:17:55;;;;;;;23.52;6.65;;;640.00;1868.80;;;;;;6246136;23;20338;-74
2023/10/08 09:20:22;;;;;;;15.93;7.07;;;640.00;1868.80;;;;;;6246419;23;20070;-74
2023/10/08 09:23:07;;;;;;;13.13;6.35;;;;;;;;;;6246074;23;20000;-75
2023/10/08 09:25:36;;;;;;;20.27;7.43;;;665.90;1766.40;;;;;;6246424;23;20019;-75
2023/10/08 09:28:07;;;;;;;17.45;7.18;;;666.50;1740.80;;;;;;6219447;23;20010;-74
2023/10/08 09:30:39;;;;;;;12.90;7.47;;;666.00;1715.20;;;;;;6246203;23;20034;-74
2023/10/08 09:33:12;;;;;;;15.98;7.90;;;665.70;1740.80;;;;;;6246487;23;20066;-75
2023/10/08 09:35:38;;;;;;;15.75;8.18;;;640.90;1740.80;;;;;;6246205;23;20020;-74
2023/10/08 09:38:08;;;;;;;16.65;9.90;;;640.70;1766.40;;;;;;6245853;23;20377;-74
2023/10/08 09:40:38;;;;;;;24.25;11.48;;;640.60;1792.00;;;;;;6246040;23;20070;-75
2023/10/08 09:43:04;;;;;;;22.42;11.65;;;640.60;1792.00;;;;;;6219057;23;20007;-75
2023/10/08 09:45:31;;;;;;;27.35;16.73;;;640.60;1766.40;;;;;;6246196;23;19997;-75
2023/10/08 09:47:58;;;;;;;32.83;19.65;;;665.60;1740.80;;;;;;6246096;23;20039;-76
2023/10/08 09:50:35;;;;;;;30.80;18.90;;;665.60;1766.40;;;;;;6246062;23;20046;-75
2023/10/08 09:53:10;;;;;;;32.53;19.80;;;640.90;1740.80;;;;;;6245891;23;20028;-75
2023/10/08 09:55:37;;;;;;;30.45;16.63;;;665.60;1766.40;;;;;;6219218;23;20426;-76
2023/10/08 09:58:03;;;;;;;28.52;15.75;;;640.90;1740.80;;;;;;6245584;23;20022;-76
2023/10/08 10:00:32;;;;;;;18.30;10.55;;;640.90;1715.20;;;;;;6245651;23;20058;-76
2023/10/08 10:03:02;;;;;;;21.35;10.77;;;665.70;1715.20;;;;;;6219047;23;20011;-75
2023/10/08 10:05:35;;;;;;;20.95;8.43;;;665.70;1715.20;;;;;;6218674;23;19996;-75
2023/10/08 10:08:05;;;;;;;17.55;5.80;;;666.50;1689.60;;;;;;6245367;23;20045;-75
2023/10/08 10:10:38;;;;;;;20.02;6.80;;;691.40;1664.00;;;;;;6218537;23;20008;-75
2023/10/08 10:13:04;;;;;;;22.38;6.63;;;692.10;1561.60;;;;;;6245612;23;20365;-75
2023/10/08 10:15:34;;;;;;;19.52;5.32;;;717.20;1561.60;;;;;;6245715;23;20004;-75
2023/10/08 10:18:31;;;;;;;11.38;6.10;;;717.20;1561.60;;;;;;6218760;23;20012;-74
2023/10/08 10:21:12;;;;;;;10.07;5.35;;;692.00;1536.00;;;;;;6218844;23;20338;-77
2023/10/08 10:23:40;;;;;;;14.40;5.07;;;691.70;1587.20;;;;;;6245308;23;20081;-75
2023/10/08 10:26:30;;;;;;;13.18;5.80;;;691.40;1612.80;;;;;;6246399;23;20008;-75
2023/10/08 10:29:10;;;;;;;10.75;5.82;;;691.30;1612.80;;;;;;6245550;23;20004;-76
2023/10/08 10:31:56;;;;;;;17.48;5.75;;;691.30;1612.80;;;;;;6245547;23;20000;-75
2023/10/08 10:34:27;;;;;;;25.63;6.43;;;691.90;1536.00;;;;;;6245598;23;20003;-75
2023/10/08 10:37:08;;;;;;;14.60;5.20;;;717.00;1536.00;;;;;;6218335;23;20422;-76
2023/10/08 10:39:39;;;;;;;14.55;5.30;;;717.50;1510.40;;;;;;6218535;23;20023;-75
2023/10/08 10:42:20;;;;;;;15.38;5.43;;;;;;;;;;6245596;23;20019;-74
2023/10/08 10:44:49;;;;;;;24.92;7.07;;;742.50;1510.40;;;;;;6245278;23;20007;-75
2023/10/08 10:49:56;;;;;;;16.50;5.85;;;742.60;1484.80;;;;;;6255663;23;20039;-74
2023/10/08 10:52:34;;;;;;;18.20;6.50;;;742.90;1459.20;;;;;;6218490;23;20018;-75
2023/10/08 10:57:55;;;;;;;19.55;5.40;;;743.30;1459.20;;;;;;6254260;23;20008;-74
2023/10/08 11:03:09;;;;;;;18.00;6.18;;;743.30;1459.20;;;;;;6255690;23;20011;-75
2023/10/08 11:05:37;;;;;;;22.88;5.88;;;;;;;;;;6218463;23;20031;-75
2023/10/08 11:08:05;;;;;;;16.98;6.18;;;768.10;1484.80;;;;;;6218126;23;20079;-75
2023/10/08 11:10:39;;;;;;;18.75;6.05;;;768.40;1433.60;;;;;;6245256;23;20005;-75
2023/10/08 11:13:17;;;;;;;27.45;5.97;;;768.10;1408.00;;;;;;6245234;23;20000;-75
2023/10/08 11:15:49;;;;;;;19.83;6.47;;;743.20;1433.60;;;;;;6218281;23;20024;-75
2023/10/08 11:18:22;;;;;;;20.95;6.57;;;768.00;1408.00;;;;;;6217523;23;20058;-74
2023/10/08 11:21:07;;;;;;;23.95;4.50;;;768.10;1382.40;;;;;;6218433;23;20000;-74
2023/10/08 11:23:35;;;;;;;23.85;5.45;;;743.10;1408.00;;;;;;6244903;23;20004;-74
2023/10/08 11:26:03;;;;;;;15.10;4.75;;;743.10;1408.00;;;;;;6245113;23;20000;-74
2023/10/08 11:28:34;;;;;;;24.48;5.68;;;742.50;1459.20;;;;;;6217899;23;20004;-74
2023/10/08 11:31:20;;;;;;;20.48;5.07;;;717.70;1689.60;;;;;;6245010;23;19997;-74
2023/10/08 11:33:56;;;;;;;;;;;717.40;1459.20;;;;;;6245356;23;20004;-74
2023/10/08 11:36:30;;;;;;;28.48;4.68;;;717.10;1484.80;;;;;;6247058;23;19982;-74
2023/10/08 11:39:07;;;;;;;24.27;4.70;;;716.80;1536.00;;;;;;6247039;23;20027;-75
2023/10/08 11:41:51;;;;;;;26.55;5.25;;;716.80;1510.40;;;;;;6246969;23;20050;-72
2023/10/08 11:44:22;;;;;;;27.23;4.95;;;692.10;1484.80;;;;;;6246742;23;20465;-73
2023/10/08 11:46:51;;;;;;;36.58;5.05;;;691.80;1510.40;;;;;;6247297;23;20003;-73
2023/10/08 11:49:18;;;;;;;31.33;5.00;;;691.70;1510.40;;;;;;6247165;23;20000;-74
2023/10/08 11:51:47;;;;;;;23.52;4.15;;;691.70;1536.00;;;;;;6247018;23;20079;-73
2023/10/08 11:54:14;;;;;;;20.10;4.95;;;691.60;1536.00;;;;;;6246771;23;20080;-74
2023/10/08 11:56:41;;;;;;;18.17;4.45;;;691.50;1536.00;;;;;;6220258;23;20007;-73
2023/10/08 11:59:11;;;;;;;16.02;4.63;;;691.40;1536.00;;;;;;6246714;23;20087;-73
2023/10/08 12:01:37;;;;;;;13.88;4.55;;;691.40;1536.00;;;;;;6220269;23;20000;-74
2023/10/08 12:04:04;;;;;;;13.75;4.07;;;691.20;1561.60;;;;;;6246745;23;20000;-75
2023/10/08 12:06:30;;;;;;;26.95;5.13;;;691.20;1561.60;;;;;;6246626;23;20107;-76
2023/10/08 12:08:58;;;;;;;40.05;6.07;;;691.20;1536.00;;;;;;6219191;23;20016;-74
2023/10/08 12:11:33;;;;;;;41.33;6.22;;;691.70;1484.80;;;;;;6247189;23;20064;-74
2023/10/08 12:13:59;;;;;;;29.75;6.18;;;692.10;1459.20;;;;;;6246775;23;20005;-75
2023/10/08 12:16:29;;;;;;;30.58;6.05;;;716.80;1510.40;;;;;;6246807;23;20004;-75
2023/10/08 12:19:01;;;;;;;24.88;5.13;;;716.80;1510.40;;;;;;6246617;23;20004;-74
2023/10/08 12:21:31;;;;;;;29.08;5.10;;;716.90;1510.40;;;;;;6246514;23;20000;-75
2023/10/08 12:24:04;;;;;;;22.20;4.22;;;717.10;1484.80;;;;;;6246935;23;20046;-74
2023/10/08 12:26:31;;;;;;;28.20;5.32;;;716.90;1484.80;;;;;;6246726;23;19996;-74
2023/10/08 12:28:57;;;;;;;26.60;5.10;;;717.30;1484.80;;;;;;6246804;23;20051;-75
2023/10/08 12:31:24;;;;;;;17.27;4.68;;;717.50;1484.80;;;;;;6246537;23;20430;-75
2023/10/08 12:33:53;;;;;;;15.10;4.10;;;717.70;1459.20;;;;;;6246804;23;20004;-74
2023/10/08 12:36:23;;;;;;;15.02;4.20;;;717.40;1459.20;;;;;;6246430;23;20078;-74
2023/10/08 12:38:57;;;;;;;19.88;5.38;;;716.90;1484.80;;;;;;6246616;23;20042;-75
2023/10/08 12:41:26;;;;;;;13.10;4.20;;;717.10;1484.80;;;;;;6219687;23;20462;-75
2023/10/08 12:43:52;;;;;;;17.23;4.40;;;717.10;1484.80;;;;;;6219587;23;20008;-74
2023/10/08 12:46:23;;;;;;;25.35;4.43;;;716.80;1510.40;;;;;;6246253;23;20004;-74
2023/10/08 12:48:53;;;;;;;21.92;4.63;;;692.10;1484.80;;;;;;6246208;23;19992;-75
2023/10/08 12:51:23;;;;;;;29.13;4.60;;;692.10;1510.40;;;;;;6246158;23;20000;-74
2023/10/08 12:54:03;;;;;;;22.15;5.15;;;691.80;1510.40;;;;;;6246429;23;20004;-74
2023/10/08 12:56:31;;;;;;;28.98;5.70;;;691.50;1561.60;;;;;;6246487;23;20001;-74
2023/10/08 12:58:58;;;;;;;20.17;4.45;;;691.40;1561.60;;;;;;6246492;23;20019;-74
2023/10/08 13:01:28;;;;;;;27.10;4.22;;;691.40;1536.00;;;;;;6219520;23;20000;-75
2023/10/08 13:03:59;;;;;;;25.55;4.93;;;691.30;1561.60;;;;;;6219510;23;20079;-74
2023/10/08 13:06:29;;;;;;;41.78;5.95;;;691.60;1536.00;;;;;;6246090;23;20414;-74
2023/10/08 13:08:56;;;;;;;24.02;4.38;;;691.70;1536.00;;;;;;6246064;23;20410;-73
2023/10/08 13:11:23;;;;;;;16.63;4.30;;;691.80;1536.00;;;;;;6219655;23;20015;-76
2023/10/08 13:13:53;;;;;;;27.00;4.53;;;691.90;1484.80;;;;;;6246052;23;20058;-74
2023/10/08 13:16:21;;;;;;;23.58;4.75;;;692.00;1484.80;;;;;;6246273;23;20084;-74
2023/10/08 13:18:48;;;;;;;21.13;5.10;;;692.10;1510.40;;;;;;6246157;23;20012;-74
2023/10/08 13:21:14;;;;;;;17.20;3.90;;;691.90;1510.40;;;;;;6246078;23;20372;-74
2023/10/08 13:23:40;;;;;;;21.08;4.30;;;692.10;1510.40;;;;;;6219134;23;20039;-74
2023/10/08 13:26:07;;;;;;;30.60;4.57;;;692.10;1510.40;;;;;;6219230;23;20000;-73